Terminal Aerodrome Forecast
Issued by NWS

Home | Current Version | Previous Version | Text Only | Print | Product List | Glossary On
Versions: 1 2 3 4 5 6 7 8 9 10 11 12 13 14
946
FTUS46 KSGX 021120
TAFTRM
TAF
KTRM 021120Z 0212/0312 VRB05KT P6SM SKC
     FM022000 14010KT P6SM SCT080
     FM030300 32006KT P6SM SCT200=

USA.gov is the U.S. government's official web portal to all federal, state and local government web resources and services.